Terminal Aerodrome Forecast
Issued by NWS Northern Indiana

Home | Current Version | Previous Version | Text Only | Print | Product List | Glossary Off
Versions: 1 2 3 4 5 6 7 8 9 10 11 12 13 14 15 16 17 18 19 20

000
FTUS43 KIWX 252300
TAFFWA
TAF
KFWA 252340Z 2600/2624 22007KT P6SM SCT050 BKN080
     FM260500 20005KT P6SM BKN080
     FM261300 22009KT P6SM SCT040 BKN070
     FM261900 23012KT P6SM VCTS SCT035CB BKN050=

USA.gov is the U.S. government's official web portal to all federal, state and local government web resources and services.